Time;durP1;ratioP1;P1;durP2;ratioP2;P2;SDS_P1;SDS_P2;PMS_P1;PMS_P2;Temp;Humidity;BMP_temperature;BMP_pressure;BME280_temperature;BME280_humidity;BME280_pressure;Samples;Min_cycle;Max_cycle;Signal;HPM_P1;HPM_P2
2021/04/01 00:00:16;;;;;;;38.95;32.88;;;7.80;99.90;;;;;;4911801;29;20048;-81
2021/04/01 00:02:53;;;;;;;39.22;32.97;;;7.80;99.90;;;;;;4906521;29;20056;-81
2021/04/01 00:05:23;;;;;;;42.88;34.88;;;7.90;99.90;;;;;;4899500;29;20045;-80
2021/04/01 00:07:50;;;;;;;47.05;36.17;;;7.90;99.90;;;;;;4891823;29;20056;-81
2021/04/01 00:10:20;;;;;;;42.60;35.80;;;8.00;99.90;;;;;;4924103;29;20067;-80
2021/04/01 00:12:47;;;;;;;45.03;35.88;;;7.90;99.90;;;;;;4910324;29;20063;-80
2021/04/01 00:15:15;;;;;;;48.60;34.50;;;8.00;99.90;;;;;;4911269;29;20056;-81
2021/04/01 00:17:42;;;;;;;48.20;36.35;;;8.00;99.90;;;;;;4910815;29;20056;-81
2021/04/01 00:20:12;;;;;;;42.17;35.65;;;8.00;99.90;;;;;;4911663;29;20044;-81
2021/04/01 00:22:39;;;;;;;47.20;35.80;;;8.00;99.90;;;;;;4911892;29;20048;-81
2021/04/01 00:25:07;;;;;;;44.25;35.75;;;8.00;99.90;;;;;;4926141;29;20076;-80
2021/04/01 00:27:34;;;;;;;40.53;34.25;;;8.00;99.90;;;;;;4878361;29;20124;-81
2021/04/01 00:30:01;;;;;;;42.13;34.17;;;8.00;99.90;;;;;;4908977;29;20049;-81
2021/04/01 00:32:27;;;;;;;45.40;34.33;;;7.90;99.90;;;;;;4898685;29;20052;-81
2021/04/01 00:34:53;;;;;;;42.72;34.58;;;7.80;99.90;;;;;;4898962;29;20056;-81
2021/04/01 00:37:20;;;;;;;44.97;35.15;;;7.80;99.90;;;;;;4892253;29;20048;-80
2021/04/01 00:39:47;;;;;;;39.10;34.28;;;7.80;99.90;;;;;;4904185;29;20059;-81
2021/04/01 00:42:14;;;;;;;41.13;33.50;;;7.90;99.90;;;;;;4910952;29;20074;-80
2021/04/01 00:44:40;;;;;;;41.60;33.83;;;7.80;99.90;;;;;;4926871;29;20599;-81
2021/04/01 00:47:08;;;;;;;40.95;32.83;;;7.80;99.90;;;;;;4893872;29;20123;-81
2021/04/01 00:49:39;;;;;;;41.22;34.92;;;7.90;99.90;;;;;;4892596;29;20056;-81
2021/04/01 00:52:07;;;;;;;43.33;35.92;;;7.90;99.90;;;;;;4909144;29;20074;-81
2021/04/01 00:54:35;;;;;;;45.03;35.00;;;7.80;99.90;;;;;;4894270;29;20099;-81
2021/04/01 00:57:02;;;;;;;40.30;32.95;;;7.80;99.90;;;;;;4893922;29;20055;-81
2021/04/01 00:59:32;;;;;;;40.90;32.25;;;7.80;99.90;;;;;;4910802;29;20543;-81
2021/04/01 01:02:04;;;;;;;41.70;32.97;;;7.70;99.90;;;;;;4920617;29;20048;-82
2021/04/01 01:04:32;;;;;;;48.88;36.55;;;7.70;99.90;;;;;;4877742;29;20070;-81
2021/04/01 01:07:00;;;;;;;47.90;33.40;;;7.80;99.90;;;;;;4923359;29;20128;-81
2021/04/01 01:09:27;;;;;;;43.47;34.80;;;7.90;99.90;;;;;;4922865;29;20155;-81
2021/04/01 01:11:54;;;;;;;46.42;35.45;;;7.90;99.90;;;;;;4874952;29;20060;-82
2021/04/01 01:14:21;;;;;;;48.75;34.25;;;7.90;99.90;;;;;;4907613;29;20064;-81
2021/04/01 01:16:48;;;;;;;41.17;32.85;;;8.00;99.90;;;;;;4909229;29;20090;-81
2021/04/01 01:19:17;;;;;;;43.45;32.63;;;8.00;99.90;;;;;;4893643;29;20044;-82
2021/04/01 01:21:45;;;;;;;46.20;32.55;;;8.00;99.90;;;;;;4906586;29;20087;-81
2021/04/01 01:24:16;;;;;;;39.10;32.33;;;8.10;99.90;;;;;;4890277;29;20045;-81
2021/04/01 01:26:44;;;;;;;42.95;31.23;;;8.10;99.90;;;;;;4876692;29;20052;-81
2021/04/01 01:29:11;;;;;;;38.28;31.23;;;8.10;99.90;;;;;;4913368;29;20084;-81
2021/04/01 01:31:49;;;;;;;39.20;31.70;;;8.20;99.90;;;;;;4889478;29;20120;-81
2021/04/01 01:34:17;;;;;;;42.15;31.13;;;8.20;99.90;;;;;;4908108;29;20467;-81
2021/04/01 01:36:44;;;;;;;38.88;31.55;;;8.10;99.90;;;;;;4904440;29;20052;-81
2021/04/01 01:39:12;;;;;;;40.40;30.67;;;8.30;99.90;;;;;;4900674;29;20052;-82
2021/04/01 01:41:39;;;;;;;37.00;30.48;;;8.20;99.90;;;;;;4891910;29;20052;-82
2021/04/01 01:44:06;;;;;;;41.17;30.67;;;8.20;99.90;;;;;;4904587;29;20047;-82
2021/04/01 01:46:33;;;;;;;35.13;28.25;;;8.20;99.90;;;;;;4900456;29;20054;-81
2021/04/01 01:49:00;;;;;;;33.25;28.35;;;8.20;99.90;;;;;;4899600;29;20062;-81
2021/04/01 01:51:29;;;;;;;33.53;29.33;;;8.20;99.90;;;;;;4895489;29;20111;-81
2021/04/01 01:53:56;;;;;;;39.83;29.85;;;8.10;99.90;;;;;;4874222;29;20071;-82
2021/04/01 01:56:25;;;;;;;44.67;28.98;;;8.20;99.90;;;;;;4902080;29;20052;-81
2021/04/01 01:58:57;;;;;;;35.83;28.67;;;8.30;99.90;;;;;;4898474;29;20114;-82
2021/04/01 02:01:25;;;;;;;35.22;29.38;;;8.40;99.90;;;;;;4900087;29;20054;-81
2021/04/01 02:03:53;;;;;;;34.92;28.83;;;8.40;99.90;;;;;;4898573;29;20084;-81
2021/04/01 02:06:20;;;;;;;35.28;28.73;;;8.50;99.90;;;;;;4906545;29;20048;-81
2021/04/01 02:08:56;;;;;;;36.45;28.02;;;8.50;99.90;;;;;;4885970;29;20064;-81
2021/04/01 02:11:26;;;;;;;42.95;32.08;;;8.30;99.90;;;;;;4921326;29;20393;-82
2021/04/01 02:13:53;;;;;;;35.03;29.42;;;8.40;99.90;;;;;;4911917;29;20080;-81
2021/04/01 02:16:23;;;;;;;37.40;27.20;;;8.40;99.90;;;;;;4902899;29;20084;-81
2021/04/01 02:18:50;;;;;;;37.47;28.10;;;8.40;99.90;;;;;;4892037;29;20048;-81
2021/04/01 02:21:20;;;;;;;37.08;28.02;;;8.40;99.90;;;;;;4910125;29;20040;-81
2021/04/01 02:23:50;;;;;;;36.50;27.63;;;8.40;99.90;;;;;;4897534;29;20070;-82
2021/04/01 02:26:19;;;;;;;36.25;28.50;;;8.30;99.90;;;;;;4913486;29;20392;-80
2021/04/01 02:28:48;;;;;;;38.35;27.40;;;8.30;99.90;;;;;;4912320;29;20060;-81
2021/04/01 02:31:19;;;;;;;31.45;26.35;;;8.30;99.90;;;;;;4898336;29;20527;-81
2021/04/01 02:33:47;;;;;;;38.13;27.23;;;8.30;99.90;;;;;;4887964;29;20057;-81
2021/04/01 02:36:15;;;;;;;32.63;25.95;;;8.30;99.90;;;;;;4890858;29;20820;-81
2021/04/01 02:38:46;;;;;;;35.40;28.40;;;8.50;99.90;;;;;;4896837;29;20106;-81
2021/04/01 02:41:16;;;;;;;32.25;27.58;;;8.40;99.90;;;;;;4915482;29;20164;-81
2021/04/01 02:43:46;;;;;;;34.25;27.40;;;8.40;99.90;;;;;;4890292;29;20049;-81
2021/04/01 02:46:14;;;;;;;30.40;27.00;;;8.40;99.90;;;;;;4901048;29;20064;-81
2021/04/01 02:48:43;;;;;;;30.73;25.42;;;8.40;99.90;;;;;;4906662;29;20057;-81
2021/04/01 02:51:18;;;;;;;38.38;26.98;;;8.50;99.90;;;;;;4907703;29;20065;-81
2021/04/01 02:53:51;;;;;;;32.83;28.23;;;8.40;99.90;;;;;;4916260;29;20047;-81
2021/04/01 02:56:28;;;;;;;35.00;27.60;;;8.50;99.90;;;;;;4899140;29;20055;-81
2021/04/01 02:59:09;;;;;;;32.58;26.95;;;8.60;99.90;;;;;;4902620;29;20121;-81
2021/04/01 03:01:44;;;;;;;30.05;25.55;;;8.70;99.90;;;;;;4909017;29;20040;-81
2021/04/01 03:04:13;;;;;;;35.28;28.70;;;8.70;99.90;;;;;;4900919;29;20096;-81
2021/04/01 03:06:46;;;;;;;33.38;27.05;;;8.80;99.90;;;;;;4909886;29;20077;-81
2021/04/01 03:09:19;;;;;;;33.42;27.95;;;8.60;99.90;;;;;;4886990;29;20041;-81
2021/04/01 03:11:46;;;;;;;32.75;27.83;;;8.50;99.90;;;;;;4887411;29;20108;-81
2021/04/01 03:14:18;;;;;;;36.47;28.23;;;8.40;99.90;;;;;;4874257;29;20044;-80
2021/04/01 03:16:51;;;;;;;36.42;26.58;;;8.50;99.90;;;;;;4891730;29;20093;-81
2021/04/01 03:19:18;;;;;;;32.63;25.98;;;8.60;99.90;;;;;;4916456;29;20140;-82
2021/04/01 03:21:48;;;;;;;32.90;27.23;;;8.60;99.90;;;;;;4909320;29;20052;-81
2021/04/01 03:24:21;;;;;;;29.58;25.80;;;8.60;99.90;;;;;;4894977;29;20087;-82
2021/04/01 03:26:53;;;;;;;38.30;28.08;;;8.60;99.90;;;;;;4897255;29;20060;-83
2021/04/01 03:29:30;;;;;;;34.65;26.55;;;8.60;99.90;;;;;;4911862;29;20060;-82
2021/04/01 03:31:59;;;;;;;34.85;28.83;;;8.60;99.90;;;;;;4907274;29;20047;-83
2021/04/01 03:34:35;;;;;;;37.38;28.70;;;8.70;99.90;;;;;;4896050;29;20116;-82
2021/04/01 03:37:02;;;;;;;39.92;28.88;;;8.90;99.90;;;;;;4902071;29;20068;-82
2021/04/01 03:39:40;;;;;;;37.40;28.73;;;9.00;99.90;;;;;;4912812;29;20049;-82
2021/04/01 03:42:12;;;;;;;36.25;29.50;;;8.90;99.90;;;;;;4910187;29;20036;-83
2021/04/01 03:44:39;;;;;;;35.22;27.75;;;8.90;99.90;;;;;;4910490;29;20056;-82
2021/04/01 03:47:14;;;;;;;38.80;29.08;;;8.90;99.90;;;;;;4892198;29;20077;-83
2021/04/01 03:49:45;;;;;;;36.40;27.77;;;8.90;99.90;;;;;;4910615;29;20103;-82
2021/04/01 03:52:13;;;;;;;32.38;26.35;;;8.90;99.90;;;;;;4901588;29;20056;-82
2021/04/01 03:54:58;;;;;;;33.40;27.52;;;9.00;99.90;;;;;;4910179;29;20070;-81
2021/04/01 03:57:37;;;;;;;41.53;28.98;;;8.80;99.90;;;;;;4904279;29;20072;-80
2021/04/01 04:00:10;;;;;;;32.85;27.10;;;8.80;99.90;;;;;;4892771;29;20059;-81
2021/04/01 04:12:58;;;;;;;43.72;32.03;;;9.20;99.90;;;;;;4905500;29;20490;-81
2021/04/01 04:15:26;;;;;;;37.22;29.50;;;9.10;99.90;;;;;;4902253;29;20383;-80
2021/04/01 04:17:56;;;;;;;42.70;30.25;;;9.00;99.90;;;;;;4900681;29;20048;-81
2021/04/01 04:20:26;;;;;;;37.22;31.52;;;9.10;99.90;;;;;;4870809;29;20465;-82
2021/04/01 04:22:54;;;;;;;42.55;32.30;;;9.10;99.90;;;;;;4885363;29;20048;-81
2021/04/01 04:25:21;;;;;;;50.85;35.15;;;9.20;99.90;;;;;;4899464;29;20123;-81
2021/04/01 04:30:25;;;;;;;41.78;31.08;;;9.10;99.90;;;;;;4906192;29;20186;-81
2021/04/01 04:32:54;;;;;;;50.45;33.50;;;9.10;99.90;;;;;;4901840;29;20223;-80
2021/04/01 04:35:21;;;;;;;43.70;34.50;;;9.20;99.90;;;;;;4888756;29;20059;-81
2021/04/01 04:37:48;;;;;;;45.70;34.22;;;9.10;99.90;;;;;;4886854;29;20082;-81
2021/04/01 04:40:17;;;;;;;50.03;35.08;;;9.20;99.90;;;;;;4900229;29;20051;-82
2021/04/01 04:42:56;;;;;;;52.13;37.30;;;9.20;99.90;;;;;;4871037;29;20056;-81
2021/04/01 04:45:23;;;;;;;42.00;32.80;;;9.30;99.90;;;;;;4895174;29;20082;-81
2021/04/01 04:47:52;;;;;;;44.70;34.67;;;9.10;99.90;;;;;;4889446;29;20062;-81
2021/04/01 04:50:21;;;;;;;54.22;36.05;;;9.20;99.90;;;;;;4911191;29;20155;-81
2021/04/01 04:52:51;;;;;;;52.58;35.65;;;9.40;99.90;;;;;;4894475;29;20056;-81
2021/04/01 04:55:19;;;;;;;56.25;38.10;;;9.60;99.90;;;;;;4909548;29;20632;-80
2021/04/01 05:04:39;;;;;;;56.47;38.78;;;9.90;99.90;;;;;;4884952;29;20040;-81
2021/04/01 05:09:19;;;;;;;56.50;38.38;;;10.30;99.90;;;;;;4901128;29;20055;-82
2021/04/01 05:11:46;;;;;;;54.55;39.15;;;10.30;99.90;;;;;;4898491;29;20063;-81
2021/04/01 05:14:13;;;;;;;52.25;38.05;;;10.50;99.90;;;;;;4887989;29;20147;-81
2021/04/01 05:16:39;;;;;;;60.22;40.15;;;10.60;99.90;;;;;;4902646;29;20075;-80
2021/04/01 05:19:08;;;;;;;52.25;39.30;;;10.40;99.90;;;;;;4915420;29;20152;-80
2021/04/01 05:21:45;;;;;;;61.85;38.55;;;10.50;99.90;;;;;;4886574;29;20124;-81
2021/04/01 05:24:26;;;;;;;58.53;40.28;;;10.50;99.90;;;;;;4906943;29;20052;-81
2021/04/01 05:30:02;;;;;;;60.33;39.60;;;10.50;99.90;;;;;;4878368;29;20620;-80
2021/04/01 05:32:34;;;;;;;57.70;38.97;;;10.70;99.90;;;;;;4889503;29;20643;-80
2021/04/01 05:35:05;;;;;;;61.58;39.72;;;10.60;99.90;;;;;;4879200;29;20796;-81
2021/04/01 05:37:31;;;;;;;57.30;39.30;;;10.70;99.90;;;;;;4895437;29;20040;-80
2021/04/01 05:39:59;;;;;;;64.38;40.08;;;10.80;99.90;;;;;;4887055;29;20059;-81
2021/04/01 05:42:31;;;;;;;59.80;40.00;;;10.90;99.90;;;;;;4898756;29;20131;-81
2021/04/01 05:45:38;;;;;;;59.33;39.67;;;10.80;99.90;;;;;;4915443;29;20052;-81
2021/04/01 05:48:01;;;;;;;61.08;39.70;;;10.90;99.90;;;;;;4898993;29;20056;-80
2021/04/01 05:53:40;;;;;;;65.20;40.20;;;10.60;99.90;;;;;;4926808;29;20052;-80
2021/04/01 05:59:12;;;;;;;62.20;40.28;;;10.40;99.90;;;;;;4911027;29;20047;-80
2021/04/01 06:04:33;;;;;;;59.83;41.42;;;10.40;99.90;;;;;;4896976;29;20273;-80
2021/04/01 06:07:05;;;;;;;65.15;40.60;;;10.40;99.90;;;;;;4916318;29;20052;-80
2021/04/01 06:09:45;;;;;;;63.10;41.50;;;10.40;99.90;;;;;;4900668;29;20052;-81
2021/04/01 06:12:12;;;;;;;66.47;40.40;;;10.20;99.90;;;;;;4884979;29;20224;-81
2021/04/01 06:15:17;;;;;;;60.10;40.28;;;10.30;99.90;;;;;;4901480;29;20124;-80
2021/04/01 06:17:48;;;;;;;62.88;40.53;;;10.50;99.90;;;;;;4846671;29;20061;-80
2021/04/01 06:20:15;;;;;;;58.92;42.00;;;10.70;99.90;;;;;;4847094;29;20451;-80
2021/04/01 06:22:43;;;;;;;60.65;42.05;;;10.80;99.90;;;;;;4895837;29;20488;-81
2021/04/01 06:25:15;;;;;;;69.78;43.92;;;11.00;99.90;;;;;;4897286;29;20056;-81
2021/04/01 06:33:09;;;;;;;65.25;44.70;;;11.30;99.90;;;;;;4908600;29;20143;-80
2021/04/01 06:35:48;;;;;;;63.55;43.15;;;11.40;99.90;;;;;;4916209;29;20288;-80
2021/04/01 06:40:49;;;;;;;74.13;43.83;;;11.60;99.90;;;;;;4917953;29;20202;-81
2021/04/01 06:43:21;;;;;;;71.35;44.28;;;11.70;99.90;;;;;;4881370;29;20040;-81
2021/04/01 06:45:51;;;;;;;68.38;43.47;;;11.80;99.90;;;;;;4879745;29;20072;-82
2021/04/01 06:48:19;;;;;;;68.97;44.65;;;11.90;99.90;;;;;;4934661;29;20080;-81
2021/04/01 06:51:04;;;;;;;66.20;42.13;;;12.00;99.90;;;;;;4882988;29;20057;-78
2021/04/01 06:53:40;;;;;;;64.97;43.05;;;12.10;99.90;;;;;;4887384;29;20049;-81
2021/04/01 06:56:54;;;;;;;67.82;44.65;;;12.10;99.90;;;;;;4877029;29;20128;-80
2021/04/01 07:02:31;;;;;;;69.18;43.10;;;12.50;99.90;;;;;;4924543;29;20071;-79
2021/04/01 07:05:15;;;;;;;65.80;43.80;;;12.60;99.90;;;;;;4918224;29;20087;-79
2021/04/01 07:07:47;;;;;;;70.05;44.42;;;12.80;99.90;;;;;;4895054;29;20082;-79
2021/04/01 07:10:35;;;;;;;67.10;43.33;;;12.90;99.90;;;;;;4901826;29;20151;-78
2021/04/01 07:13:07;;;;;;;67.68;45.50;;;13.00;99.90;;;;;;4880509;29;20056;-79
2021/04/01 07:15:39;;;;;;;65.65;42.28;;;13.20;99.90;;;;;;4879446;29;20048;-78
2021/04/01 07:18:23;;;;;;;67.75;44.22;;;13.40;99.90;;;;;;4909811;29;20151;-79
2021/04/01 07:21:21;;;;;;;72.75;43.92;;;13.50;99.90;;;;;;4911024;29;20058;-78
2021/04/01 07:48:46;;;;;;;66.38;45.72;;;14.90;99.90;;;;;;4916290;29;20060;-78
2021/04/01 07:54:08;;;;;;;65.10;43.47;;;15.10;99.90;;;;;;4912230;29;20044;-79
2021/04/01 07:56:53;;;;;;;65.25;46.20;;;15.30;99.90;;;;;;4897018;29;20070;-78
2021/04/01 07:59:34;;;;;;;74.00;48.67;;;15.60;99.90;;;;;;4931195;29;20117;-78
2021/04/01 08:02:12;;;;;;;71.30;49.33;;;15.70;99.90;;;;;;4911944;29;20328;-78
2021/04/01 08:04:42;;;;;;;71.88;47.90;;;15.70;99.90;;;;;;4912332;29;20057;-79
2021/04/01 08:07:14;;;;;;;80.47;51.45;;;15.90;99.90;;;;;;4895999;29;20075;-79
2021/04/01 08:09:43;;;;;;;79.30;51.00;;;16.10;99.90;;;;;;4910676;29;20136;-79
2021/04/01 08:12:40;;;;;;;80.38;52.05;;;16.20;99.90;;;;;;4896644;29;20144;-79
2021/04/01 08:15:15;;;;;;;83.68;51.88;;;16.40;99.90;;;;;;4879876;29;20091;-79
2021/04/01 08:17:50;;;;;;;86.80;54.42;;;16.50;99.90;;;;;;4887773;29;20116;-78
2021/04/01 08:20:23;;;;;;;88.63;55.03;;;16.50;99.90;;;;;;4895459;29;20048;-78
2021/04/01 08:23:19;;;;;;;81.88;54.22;;;16.40;99.90;;;;;;4868929;29;20049;-77
2021/04/01 08:32:33;;;;;;;88.43;55.03;;;16.70;99.90;;;;;;4922952;29;20052;-78
2021/04/01 08:35:25;;;;;;;85.18;54.63;;;16.80;99.90;;;;;;4927735;29;20555;-78
2021/04/01 08:41:07;;;;;;;91.45;54.88;;;17.10;99.90;;;;;;4905488;29;20436;-78
2021/04/01 08:44:06;;;;;;;;;;;17.40;99.90;;;;;;4893358;29;20049;-78
2021/04/01 08:47:27;;;;;;;91.30;54.63;;;17.40;99.90;;;;;;4895534;29;19927;-77
2021/04/01 08:50:27;;;;;;;79.32;52.78;;;17.40;99.90;;;;;;4895774;29;20512;-77
2021/04/01 08:53:17;;;;;;;95.65;57.47;;;17.20;99.90;;;;;;4897396;29;20060;-78
2021/04/01 08:55:55;;;;;;;93.82;55.47;;;17.20;99.90;;;;;;4878981;29;20124;-77
2021/04/01 08:58:38;;;;;;;84.13;55.22;;;17.20;99.90;;;;;;4882404;29;20044;-77
2021/04/01 09:01:14;;;;;;;89.63;55.13;;;17.20;99.90;;;;;;4895298;29;20104;-77
2021/04/01 09:03:48;;;;;;;90.20;55.85;;;17.10;99.90;;;;;;4903818;29;20142;-79
2021/04/01 09:06:21;;;;;;;87.03;56.88;;;17.50;99.90;;;;;;4910251;29;20482;-79
2021/04/01 09:09:02;;;;;;;89.70;57.95;;;17.80;99.90;;;;;;4897137;29;20052;-78
2021/04/01 09:11:36;;;;;;;94.13;58.97;;;17.90;99.90;;;;;;4879085;29;20139;-78
2021/04/01 09:14:14;;;;;;;93.35;58.10;;;17.90;99.90;;;;;;4896746;29;20124;-79
2021/04/01 09:17:12;;;;;;;94.03;58.92;;;18.00;99.90;;;;;;4911853;29;20134;-80
2021/04/01 09:19:41;;;;;;;91.95;56.60;;;18.10;99.90;;;;;;4880560;29;20154;-79
2021/04/01 09:22:22;;;;;;;84.88;52.72;;;18.10;99.90;;;;;;4896326;29;20048;-79
2021/04/01 09:24:59;;;;;;;91.28;56.53;;;18.30;99.90;;;;;;4883885;29;20049;-79
2021/04/01 09:27:25;;;;;;;92.43;55.80;;;18.30;99.90;;;;;;4880955;29;20044;-77
2021/04/01 09:30:08;;;;;;;88.70;55.85;;;18.30;99.90;;;;;;4900186;29;20367;-78
2021/04/01 09:32:38;;;;;;;86.05;55.00;;;18.50;99.90;;;;;;4906441;29;20660;-80
2021/04/01 09:35:09;;;;;;;88.07;54.70;;;18.50;99.90;;;;;;4925832;29;20060;-82
2021/04/01 09:37:52;;;;;;;93.75;57.88;;;18.40;99.90;;;;;;4895797;29;20174;-82
2021/04/01 09:40:19;;;;;;;87.38;54.63;;;18.70;99.90;;;;;;4892309;29;20485;-82
2021/04/01 09:42:46;;;;;;;93.35;56.47;;;18.80;99.90;;;;;;4890195;29;20658;-82
2021/04/01 09:45:25;;;;;;;89.65;58.33;;;18.80;99.90;;;;;;4904911;29;20119;-81
2021/04/01 09:47:59;;;;;;;88.75;56.90;;;19.00;99.90;;;;;;4891594;29;20136;-81
2021/04/01 09:50:33;;;;;;;81.45;52.72;;;19.20;99.90;;;;;;4894795;29;20107;-82
2021/04/01 09:53:12;;;;;;;91.38;54.90;;;18.90;99.90;;;;;;4893686;29;20134;-82
2021/04/01 09:55:42;;;;;;;88.38;54.20;;;18.90;99.90;;;;;;4882309;29;20062;-81
2021/04/01 09:58:38;;;;;;;86.85;53.50;;;19.00;99.90;;;;;;4901825;29;20079;-81
2021/04/01 10:04:05;;;;;;;92.50;55.70;;;19.00;99.90;;;;;;4902884;29;20059;-82
2021/04/01 10:06:44;;;;;;;98.65;57.15;;;19.10;99.90;;;;;;4907621;29;20064;-82
2021/04/01 10:09:14;;;;;;;86.80;53.67;;;19.20;99.90;;;;;;4893572;29;20052;-81
2021/04/01 10:11:52;;;;;;;90.03;55.05;;;19.10;99.90;;;;;;4888932;29;20598;-82
2021/04/01 10:14:20;;;;;;;93.78;57.65;;;19.20;99.90;;;;;;4911524;29;20072;-82
2021/04/01 10:17:05;;;;;;;85.38;54.42;;;19.20;99.90;;;;;;4895078;29;20453;-83
2021/04/01 10:19:48;;;;;;;93.75;53.83;;;19.00;99.90;;;;;;4894506;29;20564;-81
2021/04/01 10:22:24;;;;;;;91.72;55.50;;;19.20;99.90;;;;;;4926505;29;20048;-83
2021/04/01 10:25:20;;;;;;;93.40;58.33;;;19.10;99.90;;;;;;4895148;29;20079;-82
2021/04/01 10:30:17;;;;;;;92.30;55.05;;;19.40;99.90;;;;;;4919997;29;20032;-82
2021/04/01 10:33:16;;;;;;;90.47;53.92;;;19.50;99.90;;;;;;4898187;29;20040;-81
2021/04/01 10:35:48;;;;;;;90.85;54.95;;;19.80;99.80;;;;;;4913222;29;20155;-80
2021/04/01 10:38:17;;;;;;;87.68;52.72;;;19.70;99.90;;;;;;4897275;29;20275;-82
2021/04/01 10:40:49;;;;;;;83.70;54.17;;;19.50;99.30;;;;;;4896936;29;20750;-80
2021/04/01 10:43:18;;;;;;;83.32;51.97;;;19.50;99.70;;;;;;4901401;29;20057;-80
2021/04/01 10:45:46;;;;;;;81.40;49.72;;;19.40;99.90;;;;;;4908539;29;20553;-81
2021/04/01 10:48:33;;;;;;;83.68;49.63;;;19.40;99.40;;;;;;4914428;29;20055;-82
2021/04/01 10:51:07;;;;;;;86.30;50.55;;;19.30;98.40;;;;;;4881317;29;20084;-81
2021/04/01 10:53:40;;;;;;;76.72;47.10;;;19.30;99.80;;;;;;4928505;29;20125;-82
2021/04/01 10:56:08;;;;;;;75.30;48.58;;;19.60;98.20;;;;;;4881816;29;20062;-80
2021/04/01 10:58:45;;;;;;;76.20;50.05;;;19.60;97.80;;;;;;4909822;29;20100;-81
2021/04/01 11:01:13;;;;;;;75.28;48.03;;;19.30;99.40;;;;;;4889914;29;20044;-81
2021/04/01 11:03:54;;;;;;;71.22;46.00;;;19.50;98.80;;;;;;4874640;29;20644;-80
2021/04/01 11:06:24;;;;;;;80.72;52.28;;;19.40;97.60;;;;;;4891353;29;20059;-80
2021/04/01 11:08:55;;;;;;;72.32;49.33;;;19.50;98.50;;;;;;4909112;29;20055;-81
2021/04/01 11:11:24;;;;;;;78.22;50.13;;;19.30;98.00;;;;;;4906453;29;20048;-80
2021/04/01 11:13:51;;;;;;;77.80;51.65;;;19.50;98.50;;;;;;4898369;29;20147;-81
2021/04/01 11:16:20;;;;;;;81.35;48.95;;;19.60;99.90;;;;;;4923911;29;20159;-81
2021/04/01 11:18:49;;;;;;;78.25;48.45;;;19.50;98.90;;;;;;4883501;29;20116;-80
2021/04/01 11:21:19;;;;;;;83.68;49.20;;;19.40;98.50;;;;;;4915666;29;20144;-80
2021/04/01 11:23:46;;;;;;;79.60;50.42;;;19.40;98.30;;;;;;4883426;29;20088;-83
2021/04/01 11:26:12;;;;;;;78.30;48.22;;;19.40;99.50;;;;;;4897814;29;20058;-81
2021/04/01 11:28:40;;;;;;;77.07;49.08;;;19.40;97.90;;;;;;4917175;29;20123;-80
2021/04/01 11:31:10;;;;;;;77.50;48.45;;;19.50;98.20;;;;;;4901281;29;20609;-80
2021/04/01 11:33:38;;;;;;;71.40;46.63;;;19.70;99.50;;;;;;4883041;29;20064;-80
2021/04/01 11:38:46;;;;;;;73.43;45.25;;;19.80;98.20;;;;;;4919931;29;20412;-81
2021/04/01 11:41:14;;;;;;;70.40;46.40;;;19.70;97.30;;;;;;4891674;29;20071;-82
2021/04/01 11:43:40;;;;;;;70.35;45.28;;;19.90;99.00;;;;;;4909417;29;20048;-81
2021/04/01 11:46:12;;;;;;;73.80;47.50;;;19.90;97.50;;;;;;4904741;29;20470;-82
2021/04/01 11:48:40;;;;;;;70.45;46.60;;;19.80;97.90;;;;;;4901305;29;20587;-80
2021/04/01 11:51:10;;;;;;;68.43;46.33;;;19.80;97.40;;;;;;4892208;29;20072;-81
2021/04/01 11:53:40;;;;;;;68.63;44.80;;;19.90;97.80;;;;;;4905586;29;20079;-80
2021/04/01 11:56:06;;;;;;;74.15;48.97;;;19.90;97.30;;;;;;4893746;29;20319;-80
2021/04/01 11:58:33;;;;;;;70.53;48.30;;;19.80;97.90;;;;;;4878035;29;20055;-81
2021/04/01 12:01:04;;;;;;;86.40;56.92;;;19.80;98.50;;;;;;4928794;29;20056;-82
2021/04/01 12:03:47;;;;;;;101.93;62.42;;;19.80;98.50;;;;;;4894406;29;20139;-81
2021/04/01 12:06:14;;;;;;;98.45;61.95;;;19.80;99.20;;;;;;4910506;29;20048;-81
2021/04/01 12:08:40;;;;;;;100.50;65.65;;;19.10;99.90;;;;;;4901997;29;20091;-80
2021/04/01 12:11:07;;;;;;;106.45;66.53;;;18.80;99.90;;;;;;4922842;29;20055;-81
2021/04/01 12:13:33;;;;;;;108.45;66.65;;;19.10;99.90;;;;;;4896698;29;20052;-81
2021/04/01 12:16:00;;;;;;;108.72;68.03;;;19.30;99.90;;;;;;4865919;29;20146;-80
2021/04/01 12:18:39;;;;;;;108.03;66.05;;;19.20;99.90;;;;;;4892352;29;20588;-80
2021/04/01 12:21:07;;;;;;;106.70;67.60;;;18.80;99.90;;;;;;4899193;29;20053;-80
2021/04/01 12:23:44;;;;;;;101.80;65.85;;;18.70;99.90;;;;;;4930672;29;20044;-79
2021/04/01 12:26:10;;;;;;;113.03;66.93;;;18.30;99.90;;;;;;4902155;29;20078;-78
2021/04/01 12:28:37;;;;;;;107.20;67.97;;;18.30;99.90;;;;;;4903725;29;20083;-80
2021/04/01 12:31:10;;;;;;;115.85;69.60;;;18.30;99.90;;;;;;4901605;29;20056;-80
2021/04/01 12:33:50;;;;;;;113.65;68.80;;;18.50;99.90;;;;;;4875426;29;20067;-80
2021/04/01 12:36:28;;;;;;;114.53;69.25;;;18.50;99.90;;;;;;4901051;29;20139;-80
2021/04/01 12:38:55;;;;;;;113.32;68.85;;;18.10;99.90;;;;;;4916765;29;20072;-80
2021/04/01 12:41:27;;;;;;;100.43;63.88;;;17.90;99.90;;;;;;4901257;29;20108;-80
2021/04/01 12:43:54;;;;;;;116.25;69.80;;;17.90;99.90;;;;;;4917369;29;20115;-81
2021/04/01 12:46:21;;;;;;;115.05;69.53;;;17.80;99.90;;;;;;4913906;29;20136;-79
2021/04/01 12:48:55;;;;;;;101.20;64.57;;;18.30;99.90;;;;;;4892448;29;20090;-81
2021/04/01 12:51:23;;;;;;;93.78;58.33;;;18.20;99.90;;;;;;4926606;29;20044;-79
2021/04/01 12:54:12;;;;;;;94.30;55.65;;;18.20;99.90;;;;;;4916552;29;20094;-80
2021/04/01 12:56:43;;;;;;;90.70;55.28;;;17.80;99.90;;;;;;4907472;29;20124;-81
2021/04/01 12:59:14;;;;;;;91.75;52.30;;;17.80;99.90;;;;;;4912889;29;20055;-79
2021/04/01 13:01:44;;;;;;;81.57;51.60;;;17.90;99.90;;;;;;4905626;29;20485;-80
2021/04/01 13:04:12;;;;;;;70.78;45.38;;;17.80;99.90;;;;;;4915908;29;20052;-81
2021/04/01 13:11:45;;;;;;;81.30;51.92;;;18.10;99.10;;;;;;4911622;29;20131;-80
2021/04/01 13:14:12;;;;;;;81.53;52.38;;;18.10;99.90;;;;;;4886300;29;20052;-80
2021/04/01 13:16:39;;;;;;;83.53;53.40;;;18.10;99.90;;;;;;4909492;29;20127;-81
2021/04/01 13:19:06;;;;;;;78.82;51.38;;;18.00;99.90;;;;;;4880885;29;20063;-79
2021/04/01 13:25:06;;;;;;;73.13;46.72;;;18.40;99.90;;;;;;4927686;29;20080;-80
2021/04/01 13:27:11;;;;;;;68.18;44.67;;;18.30;99.90;;;;;;4909838;29;20091;-81
2021/04/01 13:29:40;;;;;;;62.15;43.00;;;18.20;99.90;;;;;;4906188;29;20135;-81
2021/04/01 13:32:17;;;;;;;57.95;41.58;;;17.80;99.90;;;;;;4898479;29;20131;-81
2021/04/01 13:34:50;;;;;;;57.95;41.50;;;17.50;99.90;;;;;;4906618;29;20108;-80
2021/04/01 13:37:31;;;;;;;51.60;37.92;;;17.40;99.90;;;;;;4898392;29;20664;-81
2021/04/01 13:40:02;;;;;;;54.58;38.15;;;17.00;99.90;;;;;;4889165;29;20131;-78
2021/04/01 13:42:31;;;;;;;52.22;37.28;;;16.70;99.90;;;;;;4892772;29;20606;-79
2021/04/01 13:45:05;;;;;;;45.33;34.95;;;16.70;99.90;;;;;;4896097;29;20077;-79
2021/04/01 13:47:35;;;;;;;46.23;34.43;;;16.80;99.90;;;;;;4899665;29;20163;-79
2021/04/01 13:50:02;;;;;;;38.83;32.25;;;16.90;99.90;;;;;;4897920;29;20056;-78
2021/04/01 13:52:35;;;;;;;37.75;31.70;;;16.90;99.90;;;;;;4906139;29;20176;-79
2021/04/01 13:55:12;;;;;;;35.35;29.15;;;16.90;99.90;;;;;;4865590;29;20144;-77
2021/04/01 14:04:18;;;;;;;30.02;23.30;;;16.90;99.90;;;;;;4912393;29;20139;-80
2021/04/01 14:09:36;;;;;;;23.48;18.85;;;16.20;99.90;;;;;;4918506;29;20143;-79
2021/04/01 14:12:08;;;;;;;21.27;19.15;;;15.80;99.90;;;;;;4897178;29;20143;-78
2021/04/01 14:14:35;;;;;;;22.42;18.40;;;15.80;99.90;;;;;;4886186;29;20156;-79
2021/04/01 14:17:04;;;;;;;19.48;17.55;;;15.60;99.90;;;;;;4887377;29;20055;-78
2021/04/01 14:19:31;;;;;;;20.40;18.45;;;15.20;99.90;;;;;;4880963;29;20049;-79
2021/04/01 14:22:00;;;;;;;18.85;17.02;;;15.10;99.90;;;;;;4874555;29;20197;-80
2021/04/01 14:24:30;;;;;;;18.58;16.85;;;14.90;99.90;;;;;;4898110;29;20135;-79
2021/04/01 14:27:06;;;;;;;17.63;16.10;;;15.00;99.90;;;;;;4911222;29;20590;-78
2021/04/01 14:29:34;;;;;;;18.65;16.83;;;14.90;99.90;;;;;;4892629;29;20060;-79
2021/04/01 14:32:01;;;;;;;17.75;16.13;;;15.00;99.90;;;;;;4883009;29;20075;-78
2021/04/01 14:34:28;;;;;;;17.13;15.93;;;15.10;99.90;;;;;;4896310;29;20072;-79
2021/04/01 14:37:00;;;;;;;18.88;17.00;;;15.40;99.90;;;;;;4885098;29;20073;-79
2021/04/01 14:39:30;;;;;;;18.52;16.83;;;15.50;99.90;;;;;;4871364;29;20044;-79
2021/04/01 14:42:03;;;;;;;17.75;16.35;;;15.70;99.90;;;;;;4885176;29;20556;-80
2021/04/01 14:44:33;;;;;;;18.05;16.63;;;16.00;99.90;;;;;;4908446;29;20116;-78